Cudworth, Canada
Current Conditions -  °F | °C
As of 8:42 PM on Friday 28 Nov 2014 (Local Time) from CYXE Reporting Station
Light Snow Light Snow  
Wind Chill: -21°   Ceiling: 500
Heat Index: -2°   Visibility: 0.75mi
Dew Point: -8°   Wind: 14mph
Humidity: 78%   Direction: 30°NNE
Pressure: 29.66"   Gusts: NA
Location:  52.48°N, 105.72°W
Report Text: CYXE 290242Z 03012KT 3/4SM R09/P6000FT/D -SN DRSN VV005 M19/M22 A2966 RMK SN8 SLP092
Loading
Personal Weather Stations






























Interactive Weather Map New forecast layout! Learn more

10-Day Weather Forecast

Advertisements
Track Severe Weather on mobile